sensor_id;sensor_type;location;lat;lon;timestamp;P1;durP1;ratioP1;P2;durP2;ratioP2
76935;SDS011;65881;52.438;16.744;2024-03-08T00:00:14;38.85;;;21.10;;
76935;SDS011;65881;52.438;16.744;2024-03-08T00:02:44;50.63;;;25.15;;
76935;SDS011;65881;52.438;16.744;2024-03-08T00:05:10;42.28;;;22.42;;
76935;SDS011;65881;52.438;16.744;2024-03-08T00:07:39;42.20;;;23.73;;
76935;SDS011;65881;52.438;16.744;2024-03-08T00:10:06;46.15;;;24.98;;
76935;SDS011;65881;52.438;16.744;2024-03-08T00:12:54;33.78;;;20.08;;
76935;SDS011;65881;52.438;16.744;2024-03-08T00:15:20;42.22;;;21.13;;
76935;SDS011;65881;52.438;16.744;2024-03-08T00:17:49;40.15;;;20.38;;
76935;SDS011;65881;52.438;16.744;2024-03-08T00:20:14;46.00;;;23.42;;
76935;SDS011;65881;52.438;16.744;2024-03-08T00:22:44;42.03;;;21.00;;
76935;SDS011;65881;52.438;16.744;2024-03-08T00:25:09;43.70;;;24.58;;
76935;SDS011;65881;52.438;16.744;2024-03-08T00:27:35;45.55;;;22.73;;
76935;SDS011;65881;52.438;16.744;2024-03-08T00:30:01;40.90;;;21.67;;
76935;SDS011;65881;52.438;16.744;2024-03-08T00:32:27;38.70;;;23.70;;
76935;SDS011;65881;52.438;16.744;2024-03-08T00:34:53;39.63;;;20.77;;
76935;SDS011;65881;52.438;16.744;2024-03-08T00:37:19;41.92;;;22.30;;
76935;SDS011;65881;52.438;16.744;2024-03-08T00:39:46;44.92;;;22.45;;
76935;SDS011;65881;52.438;16.744;2024-03-08T00:42:12;41.42;;;21.48;;
76935;SDS011;65881;52.438;16.744;2024-03-08T00:44:38;38.92;;;20.85;;
76935;SDS011;65881;52.438;16.744;2024-03-08T00:47:05;43.20;;;21.20;;
76935;SDS011;65881;52.438;16.744;2024-03-08T00:49:30;32.40;;;18.55;;
76935;SDS011;65881;52.438;16.744;2024-03-08T00:51:56;42.30;;;21.40;;
76935;SDS011;65881;52.438;16.744;2024-03-08T00:54:21;29.17;;;18.88;;
76935;SDS011;65881;52.438;16.744;2024-03-08T00:56:47;37.45;;;21.75;;
76935;SDS011;65881;52.438;16.744;2024-03-08T00:59:12;36.28;;;19.60;;
76935;SDS011;65881;52.438;16.744;2024-03-08T01:01:39;41.75;;;20.50;;
76935;SDS011;65881;52.438;16.744;2024-03-08T01:04:05;38.30;;;21.90;;
76935;SDS011;65881;52.438;16.744;2024-03-08T01:06:31;42.15;;;20.02;;
76935;SDS011;65881;52.438;16.744;2024-03-08T01:08:56;37.17;;;20.38;;
76935;SDS011;65881;52.438;16.744;2024-03-08T01:11:22;36.67;;;21.00;;
76935;SDS011;65881;52.438;16.744;2024-03-08T01:13:47;39.55;;;22.13;;
76935;SDS011;65881;52.438;16.744;2024-03-08T01:16:14;43.10;;;19.45;;
76935;SDS011;65881;52.438;16.744;2024-03-08T01:18:41;41.38;;;22.92;;
76935;SDS011;65881;52.438;16.744;2024-03-08T01:21:07;41.38;;;21.63;;
76935;SDS011;65881;52.438;16.744;2024-03-08T01:23:34;41.05;;;20.23;;
76935;SDS011;65881;52.438;16.744;2024-03-08T01:26:00;48.40;;;22.45;;
76935;SDS011;65881;52.438;16.744;2024-03-08T01:28:29;43.10;;;21.60;;
76935;SDS011;65881;52.438;16.744;2024-03-08T01:30:55;39.22;;;21.20;;
76935;SDS011;65881;52.438;16.744;2024-03-08T01:33:24;38.95;;;19.48;;
76935;SDS011;65881;52.438;16.744;2024-03-08T01:35:51;35.25;;;19.02;;
76935;SDS011;65881;52.438;16.744;2024-03-08T01:38:17;41.50;;;21.33;;
76935;SDS011;65881;52.438;16.744;2024-03-08T01:40:43;36.38;;;20.65;;
76935;SDS011;65881;52.438;16.744;2024-03-08T01:43:42;38.20;;;21.17;;
76935;SDS011;65881;52.438;16.744;2024-03-08T01:46:01;42.80;;;21.85;;
76935;SDS011;65881;52.438;16.744;2024-03-08T01:48:28;34.47;;;19.50;;
76935;SDS011;65881;52.438;16.744;2024-03-08T01:50:55;37.90;;;18.58;;
76935;SDS011;65881;52.438;16.744;2024-03-08T01:53:22;37.55;;;20.63;;
76935;SDS011;65881;52.438;16.744;2024-03-08T01:55:49;35.05;;;19.33;;
76935;SDS011;65881;52.438;16.744;2024-03-08T01:58:17;34.30;;;20.17;;
76935;SDS011;65881;52.438;16.744;2024-03-08T02:00:47;37.88;;;20.90;;
76935;SDS011;65881;52.438;16.744;2024-03-08T02:03:16;39.28;;;19.27;;
76935;SDS011;65881;52.438;16.744;2024-03-08T02:05:42;36.80;;;18.17;;
76935;SDS011;65881;52.438;16.744;2024-03-08T02:08:11;34.95;;;20.77;;
76935;SDS011;65881;52.438;16.744;2024-03-08T02:10:40;37.40;;;20.63;;
76935;SDS011;65881;52.438;16.744;2024-03-08T02:13:09;38.78;;;19.77;;
76935;SDS011;65881;52.438;16.744;2024-03-08T02:15:51;40.13;;;20.90;;
76935;SDS011;65881;52.438;16.744;2024-03-08T02:18:17;38.97;;;19.95;;
76935;SDS011;65881;52.438;16.744;2024-03-08T02:20:43;42.92;;;21.75;;
76935;SDS011;65881;52.438;16.744;2024-03-08T02:23:12;42.03;;;22.40;;
76935;SDS011;65881;52.438;16.744;2024-03-08T02:25:38;38.20;;;22.48;;
76935;SDS011;65881;52.438;16.744;2024-03-08T02:28:04;38.20;;;20.63;;
76935;SDS011;65881;52.438;16.744;2024-03-08T02:30:30;41.25;;;19.50;;
76935;SDS011;65881;52.438;16.744;2024-03-08T02:32:55;39.80;;;19.08;;
76935;SDS011;65881;52.438;16.744;2024-03-08T02:35:21;39.80;;;20.67;;
76935;SDS011;65881;52.438;16.744;2024-03-08T02:37:46;41.70;;;21.83;;
76935;SDS011;65881;52.438;16.744;2024-03-08T02:40:12;36.42;;;20.02;;
76935;SDS011;65881;52.438;16.744;2024-03-08T02:42:38;35.88;;;18.23;;
76935;SDS011;65881;52.438;16.744;2024-03-08T02:45:04;37.53;;;21.17;;
76935;SDS011;65881;52.438;16.744;2024-03-08T02:47:30;40.10;;;20.45;;
76935;SDS011;65881;52.438;16.744;2024-03-08T02:49:56;39.35;;;19.80;;
76935;SDS011;65881;52.438;16.744;2024-03-08T02:52:22;37.60;;;19.02;;
76935;SDS011;65881;52.438;16.744;2024-03-08T02:54:47;36.60;;;17.70;;
76935;SDS011;65881;52.438;16.744;2024-03-08T02:57:13;41.35;;;19.02;;
76935;SDS011;65881;52.438;16.744;2024-03-08T02:59:39;38.30;;;18.63;;
76935;SDS011;65881;52.438;16.744;2024-03-08T03:02:05;36.85;;;19.23;;
76935;SDS011;65881;52.438;16.744;2024-03-08T03:04:31;42.25;;;21.15;;
76935;SDS011;65881;52.438;16.744;2024-03-08T03:06:59;39.08;;;20.63;;
76935;SDS011;65881;52.438;16.744;2024-03-08T03:09:25;38.78;;;21.45;;
76935;SDS011;65881;52.438;16.744;2024-03-08T03:11:53;41.90;;;22.48;;
76935;SDS011;65881;52.438;16.744;2024-03-08T03:14:19;46.33;;;21.98;;
76935;SDS011;65881;52.438;16.744;2024-03-08T03:16:46;40.28;;;20.90;;
76935;SDS011;65881;52.438;16.744;2024-03-08T03:19:11;31.08;;;19.42;;
76935;SDS011;65881;52.438;16.744;2024-03-08T03:21:37;38.80;;;20.52;;
76935;SDS011;65881;52.438;16.744;2024-03-08T03:24:03;36.78;;;19.52;;
76935;SDS011;65881;52.438;16.744;2024-03-08T03:26:34;38.85;;;20.02;;
76935;SDS011;65881;52.438;16.744;2024-03-08T03:29:03;37.88;;;19.48;;
76935;SDS011;65881;52.438;16.744;2024-03-08T03:31:33;39.60;;;19.23;;
76935;SDS011;65881;52.438;16.744;2024-03-08T03:33:59;41.47;;;22.30;;
76935;SDS011;65881;52.438;16.744;2024-03-08T03:36:28;38.00;;;18.40;;
76935;SDS011;65881;52.438;16.744;2024-03-08T03:38:55;37.53;;;20.75;;
76935;SDS011;65881;52.438;16.744;2024-03-08T03:41:35;36.80;;;20.67;;
76935;SDS011;65881;52.438;16.744;2024-03-08T03:44:01;44.88;;;22.50;;
76935;SDS011;65881;52.438;16.744;2024-03-08T03:46:27;36.22;;;17.30;;
76935;SDS011;65881;52.438;16.744;2024-03-08T03:48:53;37.30;;;18.52;;
76935;SDS011;65881;52.438;16.744;2024-03-08T03:51:20;33.78;;;17.60;;
76935;SDS011;65881;52.438;16.744;2024-03-08T03:53:46;37.13;;;19.70;;
76935;SDS011;65881;52.438;16.744;2024-03-08T03:56:12;36.38;;;20.13;;
76935;SDS011;65881;52.438;16.744;2024-03-08T03:58:37;41.55;;;21.42;;
76935;SDS011;65881;52.438;16.744;2024-03-08T04:01:04;36.80;;;20.63;;
76935;SDS011;65881;52.438;16.744;2024-03-08T04:03:30;30.50;;;17.08;;
76935;SDS011;65881;52.438;16.744;2024-03-08T04:05:55;35.65;;;18.80;;
76935;SDS011;65881;52.438;16.744;2024-03-08T04:08:23;33.20;;;20.05;;
76935;SDS011;65881;52.438;16.744;2024-03-08T04:10:49;37.72;;;20.42;;
76935;SDS011;65881;52.438;16.744;2024-03-08T04:13:16;37.95;;;18.20;;
76935;SDS011;65881;52.438;16.744;2024-03-08T04:15:41;36.22;;;19.38;;
76935;SDS011;65881;52.438;16.744;2024-03-08T04:18:09;33.40;;;18.20;;
76935;SDS011;65881;52.438;16.744;2024-03-08T04:20:34;34.85;;;19.75;;
76935;SDS011;65881;52.438;16.744;2024-03-08T04:23:00;41.70;;;20.45;;
76935;SDS011;65881;52.438;16.744;2024-03-08T04:25:27;41.53;;;20.67;;
76935;SDS011;65881;52.438;16.744;2024-03-08T04:27:53;35.38;;;18.67;;
76935;SDS011;65881;52.438;16.744;2024-03-08T04:30:19;38.78;;;19.67;;
76935;SDS011;65881;52.438;16.744;2024-03-08T04:32:46;38.70;;;19.55;;
76935;SDS011;65881;52.438;16.744;2024-03-08T04:35:13;34.58;;;19.60;;
76935;SDS011;65881;52.438;16.744;2024-03-08T04:37:40;37.53;;;19.30;;
76935;SDS011;65881;52.438;16.744;2024-03-08T04:40:06;35.28;;;20.08;;
76935;SDS011;65881;52.438;16.744;2024-03-08T04:42:32;31.73;;;18.23;;
76935;SDS011;65881;52.438;16.744;2024-03-08T04:44:58;35.17;;;16.98;;
76935;SDS011;65881;52.438;16.744;2024-03-08T04:47:24;39.15;;;20.38;;
76935;SDS011;65881;52.438;16.744;2024-03-08T04:49:50;37.55;;;20.23;;
76935;SDS011;65881;52.438;16.744;2024-03-08T04:52:15;35.00;;;20.13;;
76935;SDS011;65881;52.438;16.744;2024-03-08T04:54:41;28.65;;;18.23;;
76935;SDS011;65881;52.438;16.744;2024-03-08T04:57:07;27.02;;;17.08;;
76935;SDS011;65881;52.438;16.744;2024-03-08T04:59:33;32.42;;;17.63;;
76935;SDS011;65881;52.438;16.744;2024-03-08T05:01:58;39.70;;;20.90;;
76935;SDS011;65881;52.438;16.744;2024-03-08T05:04:24;40.03;;;19.58;;
76935;SDS011;65881;52.438;16.744;2024-03-08T05:06:49;33.47;;;20.60;;
76935;SDS011;65881;52.438;16.744;2024-03-08T05:09:15;39.22;;;18.83;;
76935;SDS011;65881;52.438;16.744;2024-03-08T05:11:41;33.28;;;19.85;;
76935;SDS011;65881;52.438;16.744;2024-03-08T05:14:08;42.38;;;19.73;;
76935;SDS011;65881;52.438;16.744;2024-03-08T05:16:34;39.13;;;21.10;;
76935;SDS011;65881;52.438;16.744;2024-03-08T05:19:01;31.90;;;19.42;;
76935;SDS011;65881;52.438;16.744;2024-03-08T05:21:27;44.20;;;23.70;;
76935;SDS011;65881;52.438;16.744;2024-03-08T05:23:54;36.67;;;21.80;;
76935;SDS011;65881;52.438;16.744;2024-03-08T05:26:20;36.20;;;19.83;;
76935;SDS011;65881;52.438;16.744;2024-03-08T05:28:47;37.08;;;18.25;;
76935;SDS011;65881;52.438;16.744;2024-03-08T05:31:20;31.55;;;17.77;;
76935;SDS011;65881;52.438;16.744;2024-03-08T05:33:47;39.60;;;19.42;;
76935;SDS011;65881;52.438;16.744;2024-03-08T05:36:15;36.10;;;18.67;;
76935;SDS011;65881;52.438;16.744;2024-03-08T05:38:42;38.72;;;19.83;;
76935;SDS011;65881;52.438;16.744;2024-03-08T05:41:08;36.83;;;19.58;;
76935;SDS011;65881;52.438;16.744;2024-03-08T05:43:34;39.92;;;20.85;;
76935;SDS011;65881;52.438;16.744;2024-03-08T05:46:00;41.47;;;21.63;;
76935;SDS011;65881;52.438;16.744;2024-03-08T05:48:25;37.03;;;19.48;;
76935;SDS011;65881;52.438;16.744;2024-03-08T05:50:51;31.30;;;18.85;;
76935;SDS011;65881;52.438;16.744;2024-03-08T05:53:16;36.65;;;18.60;;
76935;SDS011;65881;52.438;16.744;2024-03-08T05:55:42;31.40;;;19.23;;
76935;SDS011;65881;52.438;16.744;2024-03-08T05:58:09;40.03;;;20.17;;
76935;SDS011;65881;52.438;16.744;2024-03-08T06:00:36;42.13;;;21.13;;
76935;SDS011;65881;52.438;16.744;2024-03-08T06:03:02;37.40;;;21.17;;
76935;SDS011;65881;52.438;16.744;2024-03-08T06:05:30;34.80;;;17.08;;
76935;SDS011;65881;52.438;16.744;2024-03-08T06:07:55;31.02;;;19.77;;
76935;SDS011;65881;52.438;16.744;2024-03-08T06:10:21;41.53;;;22.23;;
76935;SDS011;65881;52.438;16.744;2024-03-08T06:12:48;36.60;;;21.67;;
76935;SDS011;65881;52.438;16.744;2024-03-08T06:15:13;38.85;;;20.27;;
76935;SDS011;65881;52.438;16.744;2024-03-08T06:17:42;37.30;;;21.30;;
76935;SDS011;65881;52.438;16.744;2024-03-08T06:20:08;45.22;;;23.05;;
76935;SDS011;65881;52.438;16.744;2024-03-08T06:22:37;46.70;;;27.13;;
76935;SDS011;65881;52.438;16.744;2024-03-08T06:25:09;50.88;;;25.98;;
76935;SDS011;65881;52.438;16.744;2024-03-08T06:27:39;44.92;;;24.27;;
76935;SDS011;65881;52.438;16.744;2024-03-08T06:30:08;52.25;;;25.55;;
76935;SDS011;65881;52.438;16.744;2024-03-08T06:32:44;47.80;;;24.98;;
76935;SDS011;65881;52.438;16.744;2024-03-08T06:35:09;42.58;;;24.73;;
76935;SDS011;65881;52.438;16.744;2024-03-08T06:37:35;50.72;;;28.63;;
76935;SDS011;65881;52.438;16.744;2024-03-08T06:40:01;46.33;;;26.27;;
76935;SDS011;65881;52.438;16.744;2024-03-08T06:42:32;50.45;;;28.50;;
76935;SDS011;65881;52.438;16.744;2024-03-08T06:44:59;56.30;;;28.80;;
76935;SDS011;65881;52.438;16.744;2024-03-08T06:47:30;53.80;;;26.90;;
76935;SDS011;65881;52.438;16.744;2024-03-08T06:49:56;53.05;;;27.48;;
76935;SDS011;65881;52.438;16.744;2024-03-08T06:52:24;57.95;;;30.45;;
76935;SDS011;65881;52.438;16.744;2024-03-08T06:54:50;59.15;;;31.95;;
76935;SDS011;65881;52.438;16.744;2024-03-08T06:57:17;61.15;;;31.67;;
76935;SDS011;65881;52.438;16.744;2024-03-08T06:59:43;60.08;;;34.05;;
76935;SDS011;65881;52.438;16.744;2024-03-08T07:02:09;75.10;;;34.47;;
76935;SDS011;65881;52.438;16.744;2024-03-08T07:04:35;63.30;;;33.58;;
76935;SDS011;65881;52.438;16.744;2024-03-08T07:07:03;63.08;;;31.08;;
76935;SDS011;65881;52.438;16.744;2024-03-08T07:09:29;56.35;;;31.05;;
76935;SDS011;65881;52.438;16.744;2024-03-08T07:11:55;62.00;;;33.15;;
76935;SDS011;65881;52.438;16.744;2024-03-08T07:14:21;66.28;;;32.90;;
76935;SDS011;65881;52.438;16.744;2024-03-08T07:16:47;61.15;;;34.40;;
76935;SDS011;65881;52.438;16.744;2024-03-08T07:19:13;62.63;;;31.67;;
76935;SDS011;65881;52.438;16.744;2024-03-08T07:21:38;54.53;;;30.02;;
76935;SDS011;65881;52.438;16.744;2024-03-08T07:24:04;58.08;;;32.42;;
76935;SDS011;65881;52.438;16.744;2024-03-08T07:26:45;62.15;;;30.20;;
76935;SDS011;65881;52.438;16.744;2024-03-08T07:29:14;57.75;;;32.50;;
76935;SDS011;65881;52.438;16.744;2024-03-08T07:31:43;62.65;;;31.02;;
76935;SDS011;65881;52.438;16.744;2024-03-08T07:34:27;57.47;;;30.13;;
76935;SDS011;65881;52.438;16.744;2024-03-08T07:36:56;49.47;;;29.92;;
76935;SDS011;65881;52.438;16.744;2024-03-08T07:39:22;51.78;;;27.02;;
76935;SDS011;65881;52.438;16.744;2024-03-08T07:41:48;48.97;;;26.48;;
76935;SDS011;65881;52.438;16.744;2024-03-08T07:44:14;51.80;;;26.33;;
76935;SDS011;65881;52.438;16.744;2024-03-08T07:46:40;56.55;;;27.52;;
76935;SDS011;65881;52.438;16.744;2024-03-08T07:49:06;46.15;;;25.42;;
76935;SDS011;65881;52.438;16.744;2024-03-08T07:51:31;45.88;;;26.67;;
76935;SDS011;65881;52.438;16.744;2024-03-08T07:53:59;46.40;;;24.05;;
76935;SDS011;65881;52.438;16.744;2024-03-08T07:56:25;52.05;;;28.33;;
76935;SDS011;65881;52.438;16.744;2024-03-08T07:58:50;45.55;;;25.40;;
76935;SDS011;65881;52.438;16.744;2024-03-08T08:01:16;46.28;;;25.13;;
76935;SDS011;65881;52.438;16.744;2024-03-08T08:03:42;45.60;;;25.10;;
76935;SDS011;65881;52.438;16.744;2024-03-08T08:06:08;44.97;;;25.25;;
76935;SDS011;65881;52.438;16.744;2024-03-08T08:08:34;50.65;;;25.85;;
76935;SDS011;65881;52.438;16.744;2024-03-08T08:11:00;44.83;;;24.00;;
76935;SDS011;65881;52.438;16.744;2024-03-08T08:13:27;43.72;;;24.75;;
76935;SDS011;65881;52.438;16.744;2024-03-08T08:15:57;44.45;;;26.67;;
76935;SDS011;65881;52.438;16.744;2024-03-08T08:18:22;44.17;;;25.60;;
76935;SDS011;65881;52.438;16.744;2024-03-08T08:20:50;40.95;;;22.10;;
76935;SDS011;65881;52.438;16.744;2024-03-08T08:23:19;44.63;;;24.90;;
76935;SDS011;65881;52.438;16.744;2024-03-08T08:25:45;49.22;;;26.02;;
76935;SDS011;65881;52.438;16.744;2024-03-08T08:28:11;40.67;;;25.60;;
76935;SDS011;65881;52.438;16.744;2024-03-08T08:30:37;37.40;;;22.85;;
76935;SDS011;65881;52.438;16.744;2024-03-08T08:33:03;41.85;;;22.65;;
76935;SDS011;65881;52.438;16.744;2024-03-08T08:35:32;39.35;;;19.95;;
76935;SDS011;65881;52.438;16.744;2024-03-08T08:37:57;38.75;;;23.20;;
76935;SDS011;65881;52.438;16.744;2024-03-08T08:40:24;34.75;;;20.90;;
76935;SDS011;65881;52.438;16.744;2024-03-08T08:42:52;38.42;;;19.98;;
76935;SDS011;65881;52.438;16.744;2024-03-08T08:45:22;31.95;;;19.00;;
76935;SDS011;65881;52.438;16.744;2024-03-08T08:47:51;34.17;;;19.80;;
76935;SDS011;65881;52.438;16.744;2024-03-08T08:50:21;36.45;;;18.55;;
76935;SDS011;65881;52.438;16.744;2024-03-08T08:52:51;35.15;;;16.40;;
76935;SDS011;65881;52.438;16.744;2024-03-08T08:55:17;31.23;;;16.23;;
76935;SDS011;65881;52.438;16.744;2024-03-08T08:57:51;26.50;;;15.88;;
76935;SDS011;65881;52.438;16.744;2024-03-08T09:00:17;29.65;;;16.52;;
76935;SDS011;65881;52.438;16.744;2024-03-08T09:02:49;28.52;;;16.10;;
76935;SDS011;65881;52.438;16.744;2024-03-08T09:05:16;28.38;;;15.93;;
76935;SDS011;65881;52.438;16.744;2024-03-08T09:07:41;26.02;;;15.30;;
76935;SDS011;65881;52.438;16.744;2024-03-08T09:10:10;28.27;;;17.15;;
76935;SDS011;65881;52.438;16.744;2024-03-08T09:12:37;27.35;;;13.65;;
76935;SDS011;65881;52.438;16.744;2024-03-08T09:15:05;24.50;;;13.48;;
76935;SDS011;65881;52.438;16.744;2024-03-08T09:17:36;28.40;;;14.77;;
76935;SDS011;65881;52.438;16.744;2024-03-08T09:20:04;25.05;;;16.42;;
76935;SDS011;65881;52.438;16.744;2024-03-08T09:22:31;23.20;;;13.30;;
76935;SDS011;65881;52.438;16.744;2024-03-08T09:24:57;19.25;;;11.82;;
76935;SDS011;65881;52.438;16.744;2024-03-08T09:27:22;15.27;;;9.55;;
76935;SDS011;65881;52.438;16.744;2024-03-08T09:29:51;14.25;;;9.68;;
76935;SDS011;65881;52.438;16.744;2024-03-08T09:32:16;17.08;;;10.32;;
76935;SDS011;65881;52.438;16.744;2024-03-08T09:34:57;16.92;;;9.90;;
76935;SDS011;65881;52.438;16.744;2024-03-08T09:37:22;20.00;;;12.05;;
76935;SDS011;65881;52.438;16.744;2024-03-08T09:39:51;21.83;;;13.20;;
76935;SDS011;65881;52.438;16.744;2024-03-08T09:42:16;21.90;;;13.07;;
76935;SDS011;65881;52.438;16.744;2024-03-08T09:44:46;25.58;;;14.52;;
76935;SDS011;65881;52.438;16.744;2024-03-08T09:47:15;21.35;;;11.27;;
76935;SDS011;65881;52.438;16.744;2024-03-08T09:49:41;21.50;;;12.70;;
76935;SDS011;65881;52.438;16.744;2024-03-08T09:52:08;24.45;;;14.45;;
76935;SDS011;65881;52.438;16.744;2024-03-08T09:54:35;20.55;;;11.63;;
76935;SDS011;65881;52.438;16.744;2024-03-08T09:57:01;17.67;;;10.90;;
76935;SDS011;65881;52.438;16.744;2024-03-08T09:59:29;19.33;;;13.60;;
76935;SDS011;65881;52.438;16.744;2024-03-08T10:02:00;17.83;;;12.35;;
76935;SDS011;65881;52.438;16.744;2024-03-08T10:04:28;20.52;;;11.70;;
76935;SDS011;65881;52.438;16.744;2024-03-08T10:07:15;20.65;;;12.50;;
76935;SDS011;65881;52.438;16.744;2024-03-08T10:09:41;20.45;;;13.45;;
76935;SDS011;65881;52.438;16.744;2024-03-08T10:12:12;21.77;;;12.88;;
76935;SDS011;65881;52.438;16.744;2024-03-08T10:14:41;19.05;;;11.80;;
76935;SDS011;65881;52.438;16.744;2024-03-08T10:17:07;19.48;;;11.80;;
76935;SDS011;65881;52.438;16.744;2024-03-08T10:19:53;15.63;;;11.50;;
76935;SDS011;65881;52.438;16.744;2024-03-08T10:22:18;19.73;;;12.60;;
76935;SDS011;65881;52.438;16.744;2024-03-08T10:25:00;17.58;;;11.50;;
76935;SDS011;65881;52.438;16.744;2024-03-08T10:27:26;18.48;;;11.38;;
76935;SDS011;65881;52.438;16.744;2024-03-08T10:30:04;19.10;;;10.90;;
76935;SDS011;65881;52.438;16.744;2024-03-08T10:32:31;17.92;;;11.18;;
76935;SDS011;65881;52.438;16.744;2024-03-08T10:35:02;19.90;;;12.32;;
76935;SDS011;65881;52.438;16.744;2024-03-08T10:37:36;20.88;;;11.27;;
76935;SDS011;65881;52.438;16.744;2024-03-08T10:40:27;21.42;;;12.38;;
76935;SDS011;65881;52.438;16.744;2024-03-08T10:42:57;23.33;;;11.77;;
76935;SDS011;65881;52.438;16.744;2024-03-08T10:48:26;19.00;;;12.48;;
76935;SDS011;65881;52.438;16.744;2024-03-08T10:50:56;16.25;;;12.35;;
76935;SDS011;65881;52.438;16.744;2024-03-08T10:53:22;20.23;;;10.98;;
76935;SDS011;65881;52.438;16.744;2024-03-08T10:55:51;20.52;;;12.13;;
76935;SDS011;65881;52.438;16.744;2024-03-08T10:58:31;20.20;;;12.40;;
76935;SDS011;65881;52.438;16.744;2024-03-08T11:01:00;18.08;;;11.10;;
76935;SDS011;65881;52.438;16.744;2024-03-08T11:06:16;19.60;;;12.57;;
76935;SDS011;65881;52.438;16.744;2024-03-08T11:08:47;16.42;;;11.18;;
76935;SDS011;65881;52.438;16.744;2024-03-08T11:11:23;18.08;;;12.18;;
76935;SDS011;65881;52.438;16.744;2024-03-08T11:13:55;22.10;;;12.55;;
76935;SDS011;65881;52.438;16.744;2024-03-08T11:18:59;18.23;;;11.18;;
76935;SDS011;65881;52.438;16.744;2024-03-08T11:24:00;21.77;;;13.75;;
76935;SDS011;65881;52.438;16.744;2024-03-08T11:26:28;18.20;;;11.23;;
76935;SDS011;65881;52.438;16.744;2024-03-08T11:28:56;18.92;;;10.82;;
76935;SDS011;65881;52.438;16.744;2024-03-08T11:34:42;19.50;;;12.18;;
76935;SDS011;65881;52.438;16.744;2024-03-08T11:39:39;22.98;;;12.57;;
76935;SDS011;65881;52.438;16.744;2024-03-08T11:42:11;17.88;;;12.10;;
76935;SDS011;65881;52.438;16.744;2024-03-08T11:44:36;20.15;;;12.88;;
76935;SDS011;65881;52.438;16.744;2024-03-08T11:47:02;26.58;;;13.80;;
76935;SDS011;65881;52.438;16.744;2024-03-08T11:49:32;19.52;;;12.02;;
76935;SDS011;65881;52.438;16.744;2024-03-08T11:51:58;18.63;;;10.82;;
76935;SDS011;65881;52.438;16.744;2024-03-08T11:54:24;19.52;;;12.23;;
76935;SDS011;65881;52.438;16.744;2024-03-08T11:56:51;23.60;;;13.52;;
76935;SDS011;65881;52.438;16.744;2024-03-08T11:59:32;16.92;;;11.27;;
76935;SDS011;65881;52.438;16.744;2024-03-08T12:01:58;18.98;;;11.45;;
76935;SDS011;65881;52.438;16.744;2024-03-08T12:04:28;18.83;;;11.68;;
76935;SDS011;65881;52.438;16.744;2024-03-08T12:06:54;15.18;;;10.00;;
76935;SDS011;65881;52.438;16.744;2024-03-08T12:09:20;17.10;;;10.52;;
76935;SDS011;65881;52.438;16.744;2024-03-08T12:11:48;19.08;;;11.80;;
76935;SDS011;65881;52.438;16.744;2024-03-08T12:14:14;18.55;;;11.45;;
76935;SDS011;65881;52.438;16.744;2024-03-08T12:16:43;19.10;;;12.35;;
76935;SDS011;65881;52.438;16.744;2024-03-08T12:19:10;14.65;;;10.63;;
76935;SDS011;65881;52.438;16.744;2024-03-08T12:21:36;18.08;;;11.32;;
76935;SDS011;65881;52.438;16.744;2024-03-08T12:24:08;15.70;;;11.65;;
76935;SDS011;65881;52.438;16.744;2024-03-08T12:26:38;17.45;;;11.35;;
76935;SDS011;65881;52.438;16.744;2024-03-08T12:31:58;17.95;;;10.07;;
76935;SDS011;65881;52.438;16.744;2024-03-08T12:34:27;16.98;;;11.38;;
76935;SDS011;65881;52.438;16.744;2024-03-08T12:36:53;16.10;;;11.65;;
76935;SDS011;65881;52.438;16.744;2024-03-08T12:39:21;18.05;;;11.20;;
76935;SDS011;65881;52.438;16.744;2024-03-08T12:41:50;14.77;;;10.38;;
76935;SDS011;65881;52.438;16.744;2024-03-08T12:44:16;16.02;;;10.75;;
76935;SDS011;65881;52.438;16.744;2024-03-08T12:46:44;16.73;;;12.50;;
76935;SDS011;65881;52.438;16.744;2024-03-08T12:49:10;16.95;;;10.43;;
76935;SDS011;65881;52.438;16.744;2024-03-08T12:51:48;16.83;;;9.48;;
76935;SDS011;65881;52.438;16.744;2024-03-08T12:54:19;16.05;;;10.55;;
76935;SDS011;65881;52.438;16.744;2024-03-08T12:56:51;16.90;;;10.30;;
76935;SDS011;65881;52.438;16.744;2024-03-08T12:59:34;19.92;;;11.40;;
76935;SDS011;65881;52.438;16.744;2024-03-08T13:02:05;17.20;;;11.07;;
76935;SDS011;65881;52.438;16.744;2024-03-08T13:04:36;17.15;;;9.52;;
76935;SDS011;65881;52.438;16.744;2024-03-08T13:07:04;17.40;;;10.52;;
76935;SDS011;65881;52.438;16.744;2024-03-08T13:09:31;17.58;;;10.60;;
76935;SDS011;65881;52.438;16.744;2024-03-08T13:11:56;19.15;;;10.07;;
76935;SDS011;65881;52.438;16.744;2024-03-08T13:14:23;20.83;;;10.27;;
76935;SDS011;65881;52.438;16.744;2024-03-08T13:16:49;14.18;;;9.63;;
76935;SDS011;65881;52.438;16.744;2024-03-08T13:19:16;17.58;;;10.73;;
76935;SDS011;65881;52.438;16.744;2024-03-08T13:21:41;15.85;;;10.63;;
76935;SDS011;65881;52.438;16.744;2024-03-08T13:24:08;19.77;;;10.07;;
76935;SDS011;65881;52.438;16.744;2024-03-08T13:26:33;16.60;;;10.32;;
76935;SDS011;65881;52.438;16.744;2024-03-08T13:28:59;16.60;;;10.05;;
76935;SDS011;65881;52.438;16.744;2024-03-08T13:31:25;15.52;;;10.65;;
76935;SDS011;65881;52.438;16.744;2024-03-08T13:34:05;14.93;;;10.50;;
76935;SDS011;65881;52.438;16.744;2024-03-08T13:36:31;13.52;;;10.07;;
76935;SDS011;65881;52.438;16.744;2024-03-08T13:39:07;18.23;;;10.75;;
76935;SDS011;65881;52.438;16.744;2024-03-08T13:41:40;26.58;;;11.85;;
76935;SDS011;65881;52.438;16.744;2024-03-08T13:44:45;16.92;;;10.32;;
76935;SDS011;65881;52.438;16.744;2024-03-08T13:47:12;18.58;;;9.68;;
76935;SDS011;65881;52.438;16.744;2024-03-08T13:49:39;22.17;;;12.35;;
76935;SDS011;65881;52.438;16.744;2024-03-08T13:52:04;21.15;;;11.60;;
76935;SDS011;65881;52.438;16.744;2024-03-08T13:54:31;19.02;;;10.32;;
76935;SDS011;65881;52.438;16.744;2024-03-08T13:56:57;13.45;;;10.98;;
76935;SDS011;65881;52.438;16.744;2024-03-08T13:59:23;15.00;;;8.88;;
76935;SDS011;65881;52.438;16.744;2024-03-08T14:01:49;18.67;;;11.38;;
76935;SDS011;65881;52.438;16.744;2024-03-08T14:04:15;19.70;;;11.10;;
76935;SDS011;65881;52.438;16.744;2024-03-08T14:06:44;18.25;;;9.60;;
76935;SDS011;65881;52.438;16.744;2024-03-08T14:09:10;17.17;;;11.43;;
76935;SDS011;65881;52.438;16.744;2024-03-08T14:11:41;15.65;;;10.90;;
76935;SDS011;65881;52.438;16.744;2024-03-08T14:14:11;16.85;;;10.38;;
76935;SDS011;65881;52.438;16.744;2024-03-08T14:16:58;19.95;;;11.27;;
76935;SDS011;65881;52.438;16.744;2024-03-08T14:19:30;19.17;;;10.85;;
76935;SDS011;65881;52.438;16.744;2024-03-08T14:22:11;19.55;;;10.95;;
76935;SDS011;65881;52.438;16.744;2024-03-08T14:24:41;19.35;;;11.13;;
76935;SDS011;65881;52.438;16.744;2024-03-08T14:27:10;20.33;;;11.02;;
76935;SDS011;65881;52.438;16.744;2024-03-08T14:29:37;20.23;;;10.23;;
76935;SDS011;65881;52.438;16.744;2024-03-08T14:32:03;19.65;;;11.00;;